sensor_id;sensor_type;location;lat;lon;timestamp;temperature;humidity
7212;DHT22;3647;48.792;9.802;2022-12-04T00:01:56;1.90;99.90
7212;DHT22;3647;48.792;9.802;2022-12-04T00:04:23;1.90;99.90
7212;DHT22;3647;48.792;9.802;2022-12-04T00:06:53;2.00;99.90
7212;DHT22;3647;48.792;9.802;2022-12-04T00:09:20;1.90;99.90
7212;DHT22;3647;48.792;9.802;2022-12-04T00:11:46;2.00;99.90
7212;DHT22;3647;48.792;9.802;2022-12-04T00:14:13;2.00;99.90
7212;DHT22;3647;48.792;9.802;2022-12-04T00:16:40;1.90;99.90
7212;DHT22;3647;48.792;9.802;2022-12-04T00:19:07;1.90;99.90
7212;DHT22;3647;48.792;9.802;2022-12-04T00:21:34;1.90;99.90
7212;DHT22;3647;48.792;9.802;2022-12-04T00:24:02;2.00;99.90
7212;DHT22;3647;48.792;9.802;2022-12-04T00:26:29;2.00;99.90
7212;DHT22;3647;48.792;9.802;2022-12-04T00:28:56;2.00;99.90
7212;DHT22;3647;48.792;9.802;2022-12-04T00:31:25;1.90;99.90
7212;DHT22;3647;48.792;9.802;2022-12-04T00:33:53;2.00;99.90
7212;DHT22;3647;48.792;9.802;2022-12-04T00:36:23;4.20;99.90
7212;DHT22;3647;48.792;9.802;2022-12-04T00:38:51;1.90;99.90
7212;DHT22;3647;48.792;9.802;2022-12-04T00:41:21;2.00;99.90
7212;DHT22;3647;48.792;9.802;2022-12-04T00:43:48;2.00;99.90
7212;DHT22;3647;48.792;9.802;2022-12-04T00:46:15;2.00;99.90
7212;DHT22;3647;48.792;9.802;2022-12-04T00:48:43;2.10;99.90
7212;DHT22;3647;48.792;9.802;2022-12-04T00:51:11;4.30;99.90
7212;DHT22;3647;48.792;9.802;2022-12-04T00:53:38;2.00;99.90
7212;DHT22;3647;48.792;9.802;2022-12-04T00:56:07;2.00;99.90
7212;DHT22;3647;48.792;9.802;2022-12-04T00:58:36;1.90;99.90
7212;DHT22;3647;48.792;9.802;2022-12-04T01:01:04;1.90;99.90
7212;DHT22;3647;48.792;9.802;2022-12-04T01:03:32;1.90;99.90
7212;DHT22;3647;48.792;9.802;2022-12-04T01:05:59;1.90;99.90
7212;DHT22;3647;48.792;9.802;2022-12-04T01:08:26;2.00;99.90
7212;DHT22;3647;48.792;9.802;2022-12-04T01:10:53;2.00;99.90
7212;DHT22;3647;48.792;9.802;2022-12-04T01:13:21;2.00;99.90
7212;DHT22;3647;48.792;9.802;2022-12-04T01:15:49;2.00;99.90
7212;DHT22;3647;48.792;9.802;2022-12-04T01:18:17;2.00;99.90
7212;DHT22;3647;48.792;9.802;2022-12-04T01:20:46;2.00;99.90
7212;DHT22;3647;48.792;9.802;2022-12-04T01:23:13;2.00;99.90
7212;DHT22;3647;48.792;9.802;2022-12-04T01:25:40;2.00;99.90
7212;DHT22;3647;48.792;9.802;2022-12-04T01:28:14;1.90;99.90
7212;DHT22;3647;48.792;9.802;2022-12-04T01:30:41;2.00;99.90
7212;DHT22;3647;48.792;9.802;2022-12-04T01:33:09;2.00;99.90
7212;DHT22;3647;48.792;9.802;2022-12-04T01:35:36;2.00;99.90
7212;DHT22;3647;48.792;9.802;2022-12-04T01:38:03;2.10;99.90
7212;DHT22;3647;48.792;9.802;2022-12-04T01:40:30;2.00;99.90
7212;DHT22;3647;48.792;9.802;2022-12-04T01:42:58;2.00;99.90
7212;DHT22;3647;48.792;9.802;2022-12-04T01:45:39;2.00;99.90
7212;DHT22;3647;48.792;9.802;2022-12-04T01:48:14;2.00;99.90
7212;DHT22;3647;48.792;9.802;2022-12-04T01:50:44;2.00;99.90
7212;DHT22;3647;48.792;9.802;2022-12-04T01:53:13;2.10;99.90
7212;DHT22;3647;48.792;9.802;2022-12-04T01:55:41;2.00;99.90
7212;DHT22;3647;48.792;9.802;2022-12-04T01:58:09;2.10;99.90
7212;DHT22;3647;48.792;9.802;2022-12-04T02:00:36;2.10;99.90
7212;DHT22;3647;48.792;9.802;2022-12-04T02:03:02;2.10;99.90
7212;DHT22;3647;48.792;9.802;2022-12-04T02:05:31;2.10;99.90
7212;DHT22;3647;48.792;9.802;2022-12-04T02:08:01;2.10;99.90
7212;DHT22;3647;48.792;9.802;2022-12-04T02:10:36;2.10;99.90
7212;DHT22;3647;48.792;9.802;2022-12-04T02:13:10;2.00;99.90
7212;DHT22;3647;48.792;9.802;2022-12-04T02:15:44;2.00;99.90
7212;DHT22;3647;48.792;9.802;2022-12-04T02:18:17;2.00;99.90
7212;DHT22;3647;48.792;9.802;2022-12-04T02:20:51;2.20;99.90
7212;DHT22;3647;48.792;9.802;2022-12-04T02:23:56;2.00;99.90
7212;DHT22;3647;48.792;9.802;2022-12-04T02:26:38;2.00;99.90
7212;DHT22;3647;48.792;9.802;2022-12-04T02:29:10;2.00;99.90
7212;DHT22;3647;48.792;9.802;2022-12-04T02:31:43;2.00;99.90
7212;DHT22;3647;48.792;9.802;2022-12-04T02:34:17;2.00;99.90
7212;DHT22;3647;48.792;9.802;2022-12-04T02:36:54;2.00;99.90
7212;DHT22;3647;48.792;9.802;2022-12-04T02:39:26;2.00;99.90
7212;DHT22;3647;48.792;9.802;2022-12-04T02:41:56;2.00;99.90
7212;DHT22;3647;48.792;9.802;2022-12-04T02:44:28;2.00;99.90
7212;DHT22;3647;48.792;9.802;2022-12-04T02:46:59;2.00;99.90
7212;DHT22;3647;48.792;9.802;2022-12-04T02:52:52;2.00;99.90
7212;DHT22;3647;48.792;9.802;2022-12-04T02:55:24;2.00;99.90
7212;DHT22;3647;48.792;9.802;2022-12-04T02:57:58;2.00;99.90
7212;DHT22;3647;48.792;9.802;2022-12-04T03:00:29;2.00;99.90
7212;DHT22;3647;48.792;9.802;2022-12-04T03:02:59;2.00;99.90
7212;DHT22;3647;48.792;9.802;2022-12-04T03:05:37;2.00;99.90
7212;DHT22;3647;48.792;9.802;2022-12-04T03:08:08;2.00;99.90
7212;DHT22;3647;48.792;9.802;2022-12-04T03:10:40;2.00;99.90
7212;DHT22;3647;48.792;9.802;2022-12-04T03:13:14;2.00;99.90
7212;DHT22;3647;48.792;9.802;2022-12-04T03:15:45;4.20;99.90
7212;DHT22;3647;48.792;9.802;2022-12-04T03:18:16;2.20;99.90
7212;DHT22;3647;48.792;9.802;2022-12-04T03:20:47;2.00;99.90
7212;DHT22;3647;48.792;9.802;2022-12-04T03:23:19;2.00;99.90
7212;DHT22;3647;48.792;9.802;2022-12-04T03:25:55;2.00;99.90
7212;DHT22;3647;48.792;9.802;2022-12-04T03:28:27;2.00;99.90
7212;DHT22;3647;48.792;9.802;2022-12-04T03:31:02;3.10;99.90
7212;DHT22;3647;48.792;9.802;2022-12-04T03:33:33;2.00;99.90
7212;DHT22;3647;48.792;9.802;2022-12-04T03:36:09;2.00;99.90
7212;DHT22;3647;48.792;9.802;2022-12-04T03:38:42;2.00;99.90
7212;DHT22;3647;48.792;9.802;2022-12-04T03:41:13;2.00;99.90
7212;DHT22;3647;48.792;9.802;2022-12-04T03:43:48;2.00;99.90
7212;DHT22;3647;48.792;9.802;2022-12-04T03:46:23;2.00;99.90
7212;DHT22;3647;48.792;9.802;2022-12-04T03:48:55;2.00;99.90
7212;DHT22;3647;48.792;9.802;2022-12-04T03:51:31;2.00;99.90
7212;DHT22;3647;48.792;9.802;2022-12-04T03:54:04;2.00;99.90
7212;DHT22;3647;48.792;9.802;2022-12-04T03:56:37;2.00;99.90
7212;DHT22;3647;48.792;9.802;2022-12-04T03:59:08;1.90;99.90
7212;DHT22;3647;48.792;9.802;2022-12-04T04:01:39;2.00;99.90
7212;DHT22;3647;48.792;9.802;2022-12-04T04:04:12;2.00;99.90
7212;DHT22;3647;48.792;9.802;2022-12-04T04:06:45;2.00;99.90
7212;DHT22;3647;48.792;9.802;2022-12-04T04:09:15;2.00;99.90
7212;DHT22;3647;48.792;9.802;2022-12-04T04:11:46;2.00;99.90
7212;DHT22;3647;48.792;9.802;2022-12-04T04:14:17;2.00;99.90
7212;DHT22;3647;48.792;9.802;2022-12-04T04:17:09;2.00;99.90
7212;DHT22;3647;48.792;9.802;2022-12-04T04:19:59;2.00;99.90
7212;DHT22;3647;48.792;9.802;2022-12-04T04:22:48;2.00;99.90
7212;DHT22;3647;48.792;9.802;2022-12-04T04:25:36;2.10;99.90
7212;DHT22;3647;48.792;9.802;2022-12-04T04:28:04;2.00;99.90
7212;DHT22;3647;48.792;9.802;2022-12-04T04:30:31;2.00;99.90
7212;DHT22;3647;48.792;9.802;2022-12-04T04:33:06;2.00;99.90
7212;DHT22;3647;48.792;9.802;2022-12-04T04:35:43;2.00;99.90
7212;DHT22;3647;48.792;9.802;2022-12-04T04:38:16;2.10;99.90
7212;DHT22;3647;48.792;9.802;2022-12-04T04:40:50;2.90;99.90
7212;DHT22;3647;48.792;9.802;2022-12-04T04:43:22;2.10;99.90
7212;DHT22;3647;48.792;9.802;2022-12-04T04:45:53;2.10;99.90
7212;DHT22;3647;48.792;9.802;2022-12-04T04:48:25;2.10;99.90
7212;DHT22;3647;48.792;9.802;2022-12-04T04:50:53;2.10;99.90
7212;DHT22;3647;48.792;9.802;2022-12-04T04:53:22;2.10;99.90
7212;DHT22;3647;48.792;9.802;2022-12-04T04:55:51;2.10;99.90
7212;DHT22;3647;48.792;9.802;2022-12-04T04:58:19;2.10;99.90
7212;DHT22;3647;48.792;9.802;2022-12-04T05:00:52;2.10;99.90
7212;DHT22;3647;48.792;9.802;2022-12-04T05:03:21;2.10;99.90
7212;DHT22;3647;48.792;9.802;2022-12-04T05:05:49;2.10;99.90
7212;DHT22;3647;48.792;9.802;2022-12-04T05:08:15;2.10;99.90
7212;DHT22;3647;48.792;9.802;2022-12-04T05:10:42;2.10;99.90
7212;DHT22;3647;48.792;9.802;2022-12-04T05:13:10;2.10;99.90
7212;DHT22;3647;48.792;9.802;2022-12-04T05:15:38;2.10;99.90
7212;DHT22;3647;48.792;9.802;2022-12-04T05:18:04;2.20;99.90
7212;DHT22;3647;48.792;9.802;2022-12-04T05:20:33;2.20;99.90
7212;DHT22;3647;48.792;9.802;2022-12-04T05:22:59;2.20;99.90
7212;DHT22;3647;48.792;9.802;2022-12-04T05:25:25;2.20;99.90
7212;DHT22;3647;48.792;9.802;2022-12-04T05:27:52;2.20;99.90
7212;DHT22;3647;48.792;9.802;2022-12-04T05:30:19;2.20;99.90
7212;DHT22;3647;48.792;9.802;2022-12-04T05:32:46;2.20;99.90
7212;DHT22;3647;48.792;9.802;2022-12-04T05:35:13;2.20;99.90
7212;DHT22;3647;48.792;9.802;2022-12-04T05:37:41;2.20;99.90
7212;DHT22;3647;48.792;9.802;2022-12-04T05:40:08;2.10;99.90
7212;DHT22;3647;48.792;9.802;2022-12-04T05:42:36;2.20;99.90
7212;DHT22;3647;48.792;9.802;2022-12-04T05:45:03;2.20;99.90
7212;DHT22;3647;48.792;9.802;2022-12-04T05:47:30;2.20;99.90
7212;DHT22;3647;48.792;9.802;2022-12-04T05:49:57;2.20;99.90
7212;DHT22;3647;48.792;9.802;2022-12-04T05:52:24;2.10;99.90
7212;DHT22;3647;48.792;9.802;2022-12-04T05:54:52;2.90;99.90
7212;DHT22;3647;48.792;9.802;2022-12-04T05:57:18;2.20;99.90
7212;DHT22;3647;48.792;9.802;2022-12-04T05:59:45;2.20;99.90
7212;DHT22;3647;48.792;9.802;2022-12-04T06:02:12;2.70;99.90
7212;DHT22;3647;48.792;9.802;2022-12-04T06:04:39;2.70;99.90
7212;DHT22;3647;48.792;9.802;2022-12-04T06:07:05;2.20;99.90
7212;DHT22;3647;48.792;9.802;2022-12-04T06:09:32;2.10;99.90
7212;DHT22;3647;48.792;9.802;2022-12-04T06:12:00;2.20;99.90
7212;DHT22;3647;48.792;9.802;2022-12-04T06:14:27;2.20;99.90
7212;DHT22;3647;48.792;9.802;2022-12-04T06:16:54;2.20;99.90
7212;DHT22;3647;48.792;9.802;2022-12-04T06:19:22;2.20;99.90
7212;DHT22;3647;48.792;9.802;2022-12-04T06:21:50;2.20;99.90
7212;DHT22;3647;48.792;9.802;2022-12-04T06:24:19;2.20;99.90
7212;DHT22;3647;48.792;9.802;2022-12-04T06:26:46;2.10;99.90
7212;DHT22;3647;48.792;9.802;2022-12-04T06:29:15;2.20;99.90
7212;DHT22;3647;48.792;9.802;2022-12-04T06:31:42;2.20;99.90
7212;DHT22;3647;48.792;9.802;2022-12-04T06:34:10;2.20;99.90
7212;DHT22;3647;48.792;9.802;2022-12-04T06:36:36;2.20;99.90
7212;DHT22;3647;48.792;9.802;2022-12-04T06:39:03;2.20;99.90
7212;DHT22;3647;48.792;9.802;2022-12-04T06:41:30;2.20;99.90
7212;DHT22;3647;48.792;9.802;2022-12-04T06:43:58;2.10;99.90
7212;DHT22;3647;48.792;9.802;2022-12-04T06:46:27;2.10;99.90
7212;DHT22;3647;48.792;9.802;2022-12-04T06:48:55;2.20;99.90
7212;DHT22;3647;48.792;9.802;2022-12-04T06:51:24;2.10;99.90
7212;DHT22;3647;48.792;9.802;2022-12-04T06:53:51;2.10;99.90
7212;DHT22;3647;48.792;9.802;2022-12-04T06:56:20;2.10;99.90
7212;DHT22;3647;48.792;9.802;2022-12-04T06:58:49;2.20;99.90
7212;DHT22;3647;48.792;9.802;2022-12-04T07:01:18;2.20;99.90
7212;DHT22;3647;48.792;9.802;2022-12-04T07:03:47;2.20;99.90
7212;DHT22;3647;48.792;9.802;2022-12-04T07:06:16;2.20;99.90
7212;DHT22;3647;48.792;9.802;2022-12-04T07:08:45;2.20;99.90
7212;DHT22;3647;48.792;9.802;2022-12-04T07:11:13;2.20;99.90
7212;DHT22;3647;48.792;9.802;2022-12-04T07:13:40;2.20;99.90
7212;DHT22;3647;48.792;9.802;2022-12-04T07:16:09;2.20;99.90
7212;DHT22;3647;48.792;9.802;2022-12-04T07:18:37;2.20;99.90
7212;DHT22;3647;48.792;9.802;2022-12-04T07:21:06;2.70;99.90
7212;DHT22;3647;48.792;9.802;2022-12-04T07:23:34;2.20;99.90
7212;DHT22;3647;48.792;9.802;2022-12-04T07:26:04;2.20;99.90
7212;DHT22;3647;48.792;9.802;2022-12-04T07:28:31;2.10;99.90
7212;DHT22;3647;48.792;9.802;2022-12-04T07:30:57;2.40;99.90
7212;DHT22;3647;48.792;9.802;2022-12-04T07:33:24;2.10;99.90
7212;DHT22;3647;48.792;9.802;2022-12-04T07:35:54;2.10;99.90
7212;DHT22;3647;48.792;9.802;2022-12-04T07:38:23;2.20;99.90
7212;DHT22;3647;48.792;9.802;2022-12-04T07:40:50;2.20;99.90
7212;DHT22;3647;48.792;9.802;2022-12-04T07:43:17;2.20;99.90
7212;DHT22;3647;48.792;9.802;2022-12-04T07:45:44;2.20;99.90
7212;DHT22;3647;48.792;9.802;2022-12-04T07:48:11;2.20;99.90
7212;DHT22;3647;48.792;9.802;2022-12-04T07:50:37;2.20;99.90
7212;DHT22;3647;48.792;9.802;2022-12-04T07:53:06;2.20;99.90
7212;DHT22;3647;48.792;9.802;2022-12-04T07:55:34;2.20;99.90
7212;DHT22;3647;48.792;9.802;2022-12-04T07:58:01;2.20;99.90
7212;DHT22;3647;48.792;9.802;2022-12-04T08:00:27;2.20;99.90
7212;DHT22;3647;48.792;9.802;2022-12-04T08:02:54;2.20;99.90
7212;DHT22;3647;48.792;9.802;2022-12-04T08:05:21;2.20;99.90
7212;DHT22;3647;48.792;9.802;2022-12-04T08:07:48;2.20;99.90
7212;DHT22;3647;48.792;9.802;2022-12-04T08:10:15;2.20;99.90
7212;DHT22;3647;48.792;9.802;2022-12-04T08:12:43;2.20;99.90
7212;DHT22;3647;48.792;9.802;2022-12-04T08:15:10;2.20;99.90
7212;DHT22;3647;48.792;9.802;2022-12-04T08:17:36;2.20;99.90
7212;DHT22;3647;48.792;9.802;2022-12-04T08:20:04;2.20;99.90
7212;DHT22;3647;48.792;9.802;2022-12-04T08:22:31;2.20;99.90
7212;DHT22;3647;48.792;9.802;2022-12-04T08:24:58;2.30;99.90
7212;DHT22;3647;48.792;9.802;2022-12-04T08:27:25;2.30;99.90
7212;DHT22;3647;48.792;9.802;2022-12-04T08:29:53;2.30;99.90
7212;DHT22;3647;48.792;9.802;2022-12-04T08:32:20;2.40;99.90
7212;DHT22;3647;48.792;9.802;2022-12-04T08:34:49;2.30;99.90
7212;DHT22;3647;48.792;9.802;2022-12-04T08:37:16;2.40;99.90
7212;DHT22;3647;48.792;9.802;2022-12-04T08:39:43;2.30;99.90
7212;DHT22;3647;48.792;9.802;2022-12-04T08:42:10;2.40;99.90
7212;DHT22;3647;48.792;9.802;2022-12-04T08:44:36;2.40;99.90
7212;DHT22;3647;48.792;9.802;2022-12-04T08:47:05;2.40;99.90
7212;DHT22;3647;48.792;9.802;2022-12-04T08:49:32;2.50;99.90
7212;DHT22;3647;48.792;9.802;2022-12-04T08:51:59;2.40;99.90
7212;DHT22;3647;48.792;9.802;2022-12-04T08:54:25;2.50;99.90
7212;DHT22;3647;48.792;9.802;2022-12-04T08:56:52;2.50;99.90
7212;DHT22;3647;48.792;9.802;2022-12-04T08:59:19;2.50;99.90
7212;DHT22;3647;48.792;9.802;2022-12-04T09:01:48;2.50;99.90
7212;DHT22;3647;48.792;9.802;2022-12-04T09:04:17;2.60;99.90
7212;DHT22;3647;48.792;9.802;2022-12-04T09:06:44;3.20;99.90
7212;DHT22;3647;48.792;9.802;2022-12-04T09:09:11;2.40;99.90
7212;DHT22;3647;48.792;9.802;2022-12-04T09:11:38;3.20;99.90
7212;DHT22;3647;48.792;9.802;2022-12-04T09:14:04;2.50;99.90
7212;DHT22;3647;48.792;9.802;2022-12-04T09:16:31;2.50;99.90
7212;DHT22;3647;48.792;9.802;2022-12-04T09:18:58;2.50;99.90
7212;DHT22;3647;48.792;9.802;2022-12-04T09:21:26;2.60;99.90
7212;DHT22;3647;48.792;9.802;2022-12-04T09:23:53;2.60;99.90
7212;DHT22;3647;48.792;9.802;2022-12-04T09:26:23;2.70;99.90
7212;DHT22;3647;48.792;9.802;2022-12-04T09:28:50;2.70;99.90
7212;DHT22;3647;48.792;9.802;2022-12-04T09:31:18;2.70;99.90
7212;DHT22;3647;48.792;9.802;2022-12-04T09:33:45;2.70;99.90
7212;DHT22;3647;48.792;9.802;2022-12-04T09:36:13;2.70;99.90
7212;DHT22;3647;48.792;9.802;2022-12-04T09:38:43;2.70;99.90
7212;DHT22;3647;48.792;9.802;2022-12-04T09:41:24;2.70;99.90
7212;DHT22;3647;48.792;9.802;2022-12-04T09:43:56;2.70;99.90
7212;DHT22;3647;48.792;9.802;2022-12-04T09:46:29;2.80;99.90
7212;DHT22;3647;48.792;9.802;2022-12-04T09:48:58;2.70;99.90
7212;DHT22;3647;48.792;9.802;2022-12-04T09:51:27;2.70;99.90
7212;DHT22;3647;48.792;9.802;2022-12-04T09:53:59;2.70;99.90
7212;DHT22;3647;48.792;9.802;2022-12-04T09:56:28;2.80;99.90
7212;DHT22;3647;48.792;9.802;2022-12-04T09:59:02;2.80;99.90
7212;DHT22;3647;48.792;9.802;2022-12-04T10:01:34;3.60;99.90
7212;DHT22;3647;48.792;9.802;2022-12-04T10:04:07;2.70;99.90
7212;DHT22;3647;48.792;9.802;2022-12-04T10:06:38;2.80;99.90
7212;DHT22;3647;48.792;9.802;2022-12-04T10:09:12;2.80;99.90
7212;DHT22;3647;48.792;9.802;2022-12-04T10:11:47;2.80;99.90
7212;DHT22;3647;48.792;9.802;2022-12-04T10:14:40;2.70;99.90
7212;DHT22;3647;48.792;9.802;2022-12-04T10:17:26;2.80;99.90
7212;DHT22;3647;48.792;9.802;2022-12-04T10:20:03;2.90;99.90
7212;DHT22;3647;48.792;9.802;2022-12-04T10:22:41;2.80;99.90
7212;DHT22;3647;48.792;9.802;2022-12-04T10:25:16;2.80;99.90
7212;DHT22;3647;48.792;9.802;2022-12-04T10:27:48;2.90;99.90
7212;DHT22;3647;48.792;9.802;2022-12-04T10:30:20;3.10;99.90
7212;DHT22;3647;48.792;9.802;2022-12-04T10:32:48;2.90;99.90
7212;DHT22;3647;48.792;9.802;2022-12-04T10:35:21;3.80;99.90
7212;DHT22;3647;48.792;9.802;2022-12-04T10:37:52;2.90;99.90
7212;DHT22;3647;48.792;9.802;2022-12-04T10:40:24;2.80;99.90
7212;DHT22;3647;48.792;9.802;2022-12-04T10:42:54;2.80;99.90
7212;DHT22;3647;48.792;9.802;2022-12-04T10:45:23;3.20;99.90
7212;DHT22;3647;48.792;9.802;2022-12-04T10:47:50;3.10;99.90
7212;DHT22;3647;48.792;9.802;2022-12-04T10:50:19;2.90;99.90
7212;DHT22;3647;48.792;9.802;2022-12-04T10:52:47;2.90;99.90
7212;DHT22;3647;48.792;9.802;2022-12-04T10:55:14;3.00;99.90
7212;DHT22;3647;48.792;9.802;2022-12-04T10:57:44;3.00;99.90
7212;DHT22;3647;48.792;9.802;2022-12-04T11:00:33;3.60;99.90
7212;DHT22;3647;48.792;9.802;2022-12-04T11:03:02;3.10;99.90
7212;DHT22;3647;48.792;9.802;2022-12-04T11:05:31;3.10;99.90
7212;DHT22;3647;48.792;9.802;2022-12-04T11:08:00;3.10;99.90
7212;DHT22;3647;48.792;9.802;2022-12-04T11:10:33;3.10;99.90
7212;DHT22;3647;48.792;9.802;2022-12-04T11:13:04;3.10;99.90
7212;DHT22;3647;48.792;9.802;2022-12-04T11:15:34;3.10;99.90
7212;DHT22;3647;48.792;9.802;2022-12-04T11:18:08;3.00;99.90
7212;DHT22;3647;48.792;9.802;2022-12-04T11:20:35;3.10;99.90
7212;DHT22;3647;48.792;9.802;2022-12-04T11:23:03;3.00;99.90
7212;DHT22;3647;48.792;9.802;2022-12-04T11:25:44;3.10;99.90
7212;DHT22;3647;48.792;9.802;2022-12-04T11:28:16;3.10;99.90
7212;DHT22;3647;48.792;9.802;2022-12-04T11:30:47;3.20;99.90
7212;DHT22;3647;48.792;9.802;2022-12-04T11:33:17;3.20;99.90
7212;DHT22;3647;48.792;9.802;2022-12-04T11:35:50;3.20;99.90
7212;DHT22;3647;48.792;9.802;2022-12-04T11:38:18;3.20;99.90
7212;DHT22;3647;48.792;9.802;2022-12-04T11:40:47;3.20;99.90
7212;DHT22;3647;48.792;9.802;2022-12-04T11:43:17;3.30;99.90
7212;DHT22;3647;48.792;9.802;2022-12-04T11:45:53;3.30;99.90
7212;DHT22;3647;48.792;9.802;2022-12-04T11:48:20;3.30;99.90
7212;DHT22;3647;48.792;9.802;2022-12-04T11:50:52;3.20;99.90
7212;DHT22;3647;48.792;9.802;2022-12-04T11:53:25;3.30;99.90
7212;DHT22;3647;48.792;9.802;2022-12-04T11:56:08;3.20;99.90
7212;DHT22;3647;48.792;9.802;2022-12-04T11:58:50;3.20;99.90
7212;DHT22;3647;48.792;9.802;2022-12-04T12:01:32;3.30;99.90
7212;DHT22;3647;48.792;9.802;2022-12-04T12:04:24;3.20;99.90
7212;DHT22;3647;48.792;9.802;2022-12-04T12:07:03;3.10;99.90
7212;DHT22;3647;48.792;9.802;2022-12-04T12:09:39;3.20;99.90
7212;DHT22;3647;48.792;9.802;2022-12-04T12:12:09;3.20;99.90
7212;DHT22;3647;48.792;9.802;2022-12-04T12:14:45;3.20;99.90
7212;DHT22;3647;48.792;9.802;2022-12-04T12:17:19;3.20;99.90
7212;DHT22;3647;48.792;9.802;2022-12-04T12:19:58;3.20;99.90
7212;DHT22;3647;48.792;9.802;2022-12-04T12:22:39;3.20;99.90
7212;DHT22;3647;48.792;9.802;2022-12-04T12:25:14;3.30;99.90
7212;DHT22;3647;48.792;9.802;2022-12-04T12:27:57;3.30;99.90
7212;DHT22;3647;48.792;9.802;2022-12-04T12:30:33;3.30;99.90
7212;DHT22;3647;48.792;9.802;2022-12-04T12:33:10;3.40;99.90
7212;DHT22;3647;48.792;9.802;2022-12-04T12:35:46;3.40;99.90
7212;DHT22;3647;48.792;9.802;2022-12-04T12:38:17;3.40;99.90
7212;DHT22;3647;48.792;9.802;2022-12-04T12:40:48;3.40;99.90
7212;DHT22;3647;48.792;9.802;2022-12-04T12:43:21;3.40;99.90
7212;DHT22;3647;48.792;9.802;2022-12-04T12:45:54;3.40;99.90
7212;DHT22;3647;48.792;9.802;2022-12-04T12:48:29;3.50;99.90
7212;DHT22;3647;48.792;9.802;2022-12-04T12:51:03;3.50;99.90
7212;DHT22;3647;48.792;9.802;2022-12-04T12:53:35;3.40;99.90
7212;DHT22;3647;48.792;9.802;2022-12-04T12:56:04;3.50;99.90
7212;DHT22;3647;48.792;9.802;2022-12-04T12:58:37;3.40;99.90
7212;DHT22;3647;48.792;9.802;2022-12-04T13:01:11;3.70;99.90
7212;DHT22;3647;48.792;9.802;2022-12-04T13:03:44;4.30;99.90
7212;DHT22;3647;48.792;9.802;2022-12-04T13:06:18;3.30;99.90
7212;DHT22;3647;48.792;9.802;2022-12-04T13:08:58;3.30;99.90
7212;DHT22;3647;48.792;9.802;2022-12-04T13:11:26;3.30;99.90
7212;DHT22;3647;48.792;9.802;2022-12-04T13:13:56;4.90;99.90
7212;DHT22;3647;48.792;9.802;2022-12-04T13:16:26;3.40;99.90
7212;DHT22;3647;48.792;9.802;2022-12-04T13:19:03;3.50;99.90
7212;DHT22;3647;48.792;9.802;2022-12-04T13:21:33;4.10;99.90
7212;DHT22;3647;48.792;9.802;2022-12-04T13:24:27;3.50;99.90
7212;DHT22;3647;48.792;9.802;2022-12-04T13:27:00;3.50;99.90
7212;DHT22;3647;48.792;9.802;2022-12-04T13:29:39;3.60;99.90
7212;DHT22;3647;48.792;9.802;2022-12-04T13:32:32;4.30;99.90
7212;DHT22;3647;48.792;9.802;2022-12-04T13:35:06;3.50;99.90
7212;DHT22;3647;48.792;9.802;2022-12-04T13:38:10;3.50;99.90
7212;DHT22;3647;48.792;9.802;2022-12-04T13:40:40;5.80;99.90
7212;DHT22;3647;48.792;9.802;2022-12-04T13:43:33;3.50;99.90
7212;DHT22;3647;48.792;9.802;2022-12-04T13:46:02;3.50;99.90
7212;DHT22;3647;48.792;9.802;2022-12-04T13:48:40;3.50;99.90
7212;DHT22;3647;48.792;9.802;2022-12-04T13:51:31;3.60;99.90
7212;DHT22;3647;48.792;9.802;2022-12-04T13:54:02;3.50;99.90
7212;DHT22;3647;48.792;9.802;2022-12-04T13:56:30;3.50;99.90
7212;DHT22;3647;48.792;9.802;2022-12-04T13:58:59;3.50;99.90
7212;DHT22;3647;48.792;9.802;2022-12-04T14:01:31;3.50;99.90
7212;DHT22;3647;48.792;9.802;2022-12-04T14:04:02;3.50;99.90
7212;DHT22;3647;48.792;9.802;2022-12-04T14:06:34;3.50;99.90
7212;DHT22;3647;48.792;9.802;2022-12-04T14:09:04;3.50;99.90
7212;DHT22;3647;48.792;9.802;2022-12-04T14:11:41;3.50;99.90
7212;DHT22;3647;48.792;9.802;2022-12-04T14:14:22;3.60;99.90
7212;DHT22;3647;48.792;9.802;2022-12-04T14:16:50;3.60;99.90
7212;DHT22;3647;48.792;9.802;2022-12-04T14:19:31;3.60;99.90
7212;DHT22;3647;48.792;9.802;2022-12-04T14:21:58;3.60;99.90
7212;DHT22;3647;48.792;9.802;2022-12-04T14:24:31;3.60;99.90
7212;DHT22;3647;48.792;9.802;2022-12-04T14:27:00;3.80;99.90
7212;DHT22;3647;48.792;9.802;2022-12-04T14:29:46;3.60;99.90
7212;DHT22;3647;48.792;9.802;2022-12-04T14:32:15;3.60;99.90
7212;DHT22;3647;48.792;9.802;2022-12-04T14:34:43;3.60;99.90
7212;DHT22;3647;48.792;9.802;2022-12-04T14:37:19;3.60;99.90
7212;DHT22;3647;48.792;9.802;2022-12-04T14:39:48;4.40;99.90
7212;DHT22;3647;48.792;9.802;2022-12-04T14:42:22;5.90;99.90
7212;DHT22;3647;48.792;9.802;2022-12-04T14:44:52;3.50;99.90
7212;DHT22;3647;48.792;9.802;2022-12-04T14:47:32;3.50;99.90
7212;DHT22;3647;48.792;9.802;2022-12-04T14:50:27;3.50;99.90
7212;DHT22;3647;48.792;9.802;2022-12-04T14:52:59;3.60;99.90
7212;DHT22;3647;48.792;9.802;2022-12-04T14:55:34;4.40;99.90
7212;DHT22;3647;48.792;9.802;2022-12-04T14:58:14;3.60;99.90
7212;DHT22;3647;48.792;9.802;2022-12-04T15:01:00;3.60;99.90
7212;DHT22;3647;48.792;9.802;2022-12-04T15:03:32;3.60;99.90
7212;DHT22;3647;48.792;9.802;2022-12-04T15:06:04;3.60;99.90
7212;DHT22;3647;48.792;9.802;2022-12-04T15:08:31;3.60;99.90
7212;DHT22;3647;48.792;9.802;2022-12-04T15:10:58;3.60;99.90
7212;DHT22;3647;48.792;9.802;2022-12-04T15:13:43;4.50;99.90
7212;DHT22;3647;48.792;9.802;2022-12-04T15:16:15;3.50;99.90
7212;DHT22;3647;48.792;9.802;2022-12-04T15:18:52;3.50;99.90
7212;DHT22;3647;48.792;9.802;2022-12-04T15:21:21;3.50;99.90
7212;DHT22;3647;48.792;9.802;2022-12-04T15:23:48;3.80;99.90
7212;DHT22;3647;48.792;9.802;2022-12-04T15:26:17;3.60;99.90
7212;DHT22;3647;48.792;9.802;2022-12-04T15:28:49;3.60;99.90
7212;DHT22;3647;48.792;9.802;2022-12-04T15:31:18;3.80;99.90
7212;DHT22;3647;48.792;9.802;2022-12-04T15:33:46;4.00;99.90
7212;DHT22;3647;48.792;9.802;2022-12-04T15:36:18;3.50;99.90
7212;DHT22;3647;48.792;9.802;2022-12-04T15:38:47;3.50;99.90
7212;DHT22;3647;48.792;9.802;2022-12-04T15:41:30;3.60;99.90
7212;DHT22;3647;48.792;9.802;2022-12-04T15:43:57;3.50;99.90
7212;DHT22;3647;48.792;9.802;2022-12-04T15:46:28;3.50;99.90
7212;DHT22;3647;48.792;9.802;2022-12-04T15:49:12;3.60;99.90
7212;DHT22;3647;48.792;9.802;2022-12-04T15:51:41;3.60;99.90
7212;DHT22;3647;48.792;9.802;2022-12-04T15:54:15;3.60;99.90
7212;DHT22;3647;48.792;9.802;2022-12-04T15:56:56;3.50;99.90
7212;DHT22;3647;48.792;9.802;2022-12-04T15:59:25;3.60;99.90
7212;DHT22;3647;48.792;9.802;2022-12-04T16:01:54;3.60;99.90
7212;DHT22;3647;48.792;9.802;2022-12-04T16:04:22;3.60;99.90
7212;DHT22;3647;48.792;9.802;2022-12-04T16:06:53;3.60;99.90
7212;DHT22;3647;48.792;9.802;2022-12-04T16:09:23;4.20;99.90
7212;DHT22;3647;48.792;9.802;2022-12-04T16:12:00;3.60;99.90
7212;DHT22;3647;48.792;9.802;2022-12-04T16:14:27;3.50;99.90
7212;DHT22;3647;48.792;9.802;2022-12-04T16:16:55;4.10;99.90
7212;DHT22;3647;48.792;9.802;2022-12-04T16:19:29;4.40;99.90
7212;DHT22;3647;48.792;9.802;2022-12-04T16:21:57;3.50;99.90
7212;DHT22;3647;48.792;9.802;2022-12-04T16:24:26;4.30;99.90
7212;DHT22;3647;48.792;9.802;2022-12-04T16:26:55;3.50;99.90
7212;DHT22;3647;48.792;9.802;2022-12-04T16:29:22;3.50;99.90
7212;DHT22;3647;48.792;9.802;2022-12-04T16:31:50;3.50;99.90
7212;DHT22;3647;48.792;9.802;2022-12-04T16:34:17;3.50;99.90
7212;DHT22;3647;48.792;9.802;2022-12-04T16:36:44;3.60;99.90
7212;DHT22;3647;48.792;9.802;2022-12-04T16:39:11;3.40;99.90
7212;DHT22;3647;48.792;9.802;2022-12-04T16:41:40;3.50;99.90
7212;DHT22;3647;48.792;9.802;2022-12-04T16:44:12;3.50;99.90
7212;DHT22;3647;48.792;9.802;2022-12-04T16:46:40;3.50;99.90